Time;durP1;ratioP1;P1;durP2;ratioP2;P2;SDS_P1;SDS_P2;PMS_P1;PMS_P2;Temp;Humidity;BMP_temperature;BMP_pressure;BME280_temperature;BME280_humidity;BME280_pressure;Samples;Min_cycle;Max_cycle;Signal;HPM_P1;HPM_P2
2021/03/26 00:00:44;;;;;;;10.77;5.87;;;2.50;96.30;;;;;;4959271;29;20929;-80
2021/03/26 00:03:13;;;;;;;14.17;6.67;;;2.40;96.30;;;;;;4958963;29;20438;-80
2021/03/26 00:05:38;;;;;;;7.40;5.70;;;2.20;96.30;;;;;;4958814;29;20570;-79
2021/03/26 00:08:05;;;;;;;9.27;5.93;;;2.20;96.30;;;;;;4940108;29;20442;-80
2021/03/26 00:10:31;;;;;;;8.00;5.47;;;2.20;96.30;;;;;;4955279;29;20194;-80
2021/03/26 00:12:56;;;;;;;11.13;5.90;;;2.20;96.30;;;;;;4957358;29;20419;-78
2021/03/26 00:15:23;;;;;;;9.73;5.93;;;2.30;96.30;;;;;;4958090;29;20198;-80
2021/03/26 00:17:48;;;;;;;8.83;5.50;;;2.40;96.30;;;;;;4956746;28;20209;-79
2021/03/26 00:20:14;;;;;;;10.80;6.37;;;2.40;96.30;;;;;;4940494;29;20422;-80
2021/03/26 00:22:40;;;;;;;14.33;7.00;;;2.40;96.30;;;;;;4940601;29;20199;-80
2021/03/26 00:25:07;;;;;;;9.53;7.00;;;2.40;96.30;;;;;;4957628;29;20402;-80
2021/03/26 00:27:32;;;;;;;8.53;5.70;;;2.50;96.30;;;;;;4956468;28;20197;-80
2021/03/26 00:29:58;;;;;;;8.53;5.77;;;2.40;96.30;;;;;;4957141;29;20494;-80
2021/03/26 00:32:23;;;;;;;8.80;6.07;;;2.50;96.30;;;;;;4956861;29;20610;-79
2021/03/26 00:34:50;;;;;;;11.47;7.20;;;2.50;96.30;;;;;;4954556;29;20192;-78
2021/03/26 00:37:17;;;;;;;7.13;5.90;;;2.60;96.30;;;;;;4939968;28;20619;-76
2021/03/26 00:39:43;;;;;;;9.10;5.97;;;2.60;96.30;;;;;;4935579;29;20506;-80
2021/03/26 00:42:08;;;;;;;10.67;6.00;;;2.50;96.30;;;;;;4958136;29;20462;-79
2021/03/26 00:44:34;;;;;;;9.33;5.97;;;2.50;96.30;;;;;;4958663;28;20643;-78
2021/03/26 00:47:00;;;;;;;8.20;6.10;;;2.60;96.30;;;;;;4959005;28;20513;-78
2021/03/26 00:49:25;;;;;;;8.43;5.90;;;2.50;96.30;;;;;;4941498;29;20199;-79
2021/03/26 00:51:50;;;;;;;6.73;5.10;;;2.40;96.30;;;;;;4958725;29;20210;-79
2021/03/26 00:54:17;;;;;;;10.07;5.80;;;2.30;96.30;;;;;;4958923;29;20257;-79
2021/03/26 00:56:44;;;;;;;10.20;6.30;;;2.20;96.30;;;;;;4958703;28;20266;-80
2021/03/26 00:59:09;;;;;;;10.23;5.97;;;2.10;96.30;;;;;;4957767;28;20508;-80
2021/03/26 05:02:20;;;;;;;11.50;5.90;;;0.20;96.30;;;;;;5096435;23;20529;-79
2021/03/26 05:04:46;;;;;;;11.80;6.00;;;0.30;96.30;;;;;;4948450;28;20410;-79
2021/03/26 05:07:18;;;;;;;11.73;7.30;;;0.40;96.30;;;;;;4974687;28;20951;-80
2021/03/26 05:09:48;;;;;;;14.03;6.87;;;0.60;96.30;;;;;;4957847;28;20179;-79
2021/03/26 05:12:31;;;;;;;13.67;7.90;;;0.80;96.30;;;;;;4960392;28;20536;-79
2021/03/26 05:15:06;;;;;;;16.23;9.77;;;0.80;96.30;;;;;;4991094;23;20593;-76
2021/03/26 05:17:57;;;;;;;9.20;5.70;;;1.10;96.30;;;;;;4955141;29;20434;-77
2021/03/26 05:20:22;;;;;;;15.57;9.07;;;1.30;96.30;;;;;;4956021;29;20391;-76
2021/03/26 05:22:57;;;;;;;17.73;10.57;;;1.30;96.30;;;;;;4938212;29;20465;-78
2021/03/26 05:25:38;;;;;;;24.17;12.33;;;1.70;96.30;;;;;;4955121;28;20193;-77
2021/03/26 05:28:17;;;;;;;32.57;14.50;;;1.80;96.30;;;;;;4955237;28;20410;-76
2021/03/26 05:30:45;;;;;;;43.73;20.30;;;2.40;96.30;;;;;;4955648;29;20414;-77
2021/03/26 05:33:26;;;;;;;16.60;8.97;;;3.00;96.30;;;;;;4955645;29;20423;-77
2021/03/26 05:36:03;;;;;;;13.90;8.00;;;3.00;96.30;;;;;;4955349;28;20426;-76
2021/03/26 05:38:46;;;;;;;17.50;9.67;;;2.60;96.30;;;;;;4954780;29;20418;-76
2021/03/26 05:41:52;;;;;;;17.70;9.70;;;2.50;96.30;;;;;;4955540;29;20418;-76
2021/03/26 05:44:51;;;;;;;25.40;13.10;;;2.70;96.30;;;;;;4954558;28;20454;-77
2021/03/26 05:47:23;;;;;;;20.33;10.93;;;3.30;96.30;;;;;;4955000;29;20425;-77
2021/03/26 05:50:14;;;;;;;28.57;16.63;;;3.90;96.30;;;;;;4954417;29;20780;-77
2021/03/26 05:53:07;;;;;;;29.03;13.57;;;4.40;96.30;;;;;;4955769;29;20425;-77
2021/03/26 05:56:02;;;;;;;22.90;11.80;;;5.10;96.30;;;;;;4938213;29;20446;-77
2021/03/26 05:58:55;;;;;;;14.67;9.17;;;5.40;96.30;;;;;;4937642;29;20481;-78
2021/03/26 06:01:51;;;;;;;21.10;10.10;;;5.70;96.30;;;;;;4955625;29;20406;-76
2021/03/26 06:04:30;;;;;;;9.40;6.20;;;5.60;96.30;;;;;;4955417;28;20470;-77
2021/03/26 06:07:24;;;;;;;10.60;7.40;;;5.80;96.30;;;;;;4954766;29;20475;-79
2021/03/26 06:10:15;;;;;;;10.93;6.70;;;6.40;96.30;;;;;;4955118;29;20770;-77
2021/03/26 06:12:56;;;;;;;11.00;6.97;;;6.70;96.30;;;;;;4955070;29;20501;-77
2021/03/26 06:15:40;;;;;;;13.10;6.70;;;6.40;96.30;;;;;;4955016;28;20465;-77
2021/03/26 06:18:27;;;;;;;15.30;8.53;;;6.80;96.30;;;;;;4954506;29;20403;-77
2021/03/26 06:21:08;;;;;;;16.13;9.60;;;6.70;96.30;;;;;;4937812;29;20455;-76
2021/03/26 06:23:59;;;;;;;13.63;8.40;;;7.00;96.30;;;;;;4955235;29;20466;-76
2021/03/26 06:26:40;;;;;;;13.90;8.13;;;7.30;96.30;;;;;;4954995;29;20814;-77
2021/03/26 06:29:31;;;;;;;13.90;8.67;;;7.20;96.30;;;;;;4954261;29;20410;-76
2021/03/26 06:32:05;;;;;;;15.80;9.63;;;6.80;96.30;;;;;;4954822;29;20394;-77
2021/03/26 06:34:58;;;;;;;28.40;11.10;;;6.80;96.30;;;;;;4954601;28;20808;-77
2021/03/26 06:37:56;;;;;;;14.83;9.03;;;6.90;96.30;;;;;;4953330;28;20965;-77
2021/03/26 06:41:01;;;;;;;15.17;8.33;;;7.00;96.30;;;;;;4937306;29;20490;-77
2021/03/26 06:43:53;;;;;;;13.10;7.73;;;7.30;96.30;;;;;;4954517;29;20457;-76
2021/03/26 06:46:40;;;;;;;12.80;7.63;;;7.40;96.30;;;;;;4954868;29;20395;-76
2021/03/26 06:49:35;;;;;;;15.63;8.93;;;7.00;96.30;;;;;;4954397;29;20544;-77
2021/03/26 06:52:32;;;;;;;14.70;7.47;;;7.70;96.30;;;;;;4937654;29;20461;-79
2021/03/26 06:55:19;;;;;;;13.10;8.60;;;8.70;96.30;;;;;;4953241;28;20447;-76
2021/03/26 06:57:59;;;;;;;15.63;8.27;;;8.80;96.20;;;;;;4954451;29;20434;-77
2021/03/26 07:00:33;;;;;;;19.97;9.70;;;8.20;96.30;;;;;;4957159;29;20413;-76
2021/03/26 07:03:33;;;;;;;26.57;11.20;;;8.00;96.30;;;;;;4955891;29;20446;-77
2021/03/26 07:06:30;;;;;;;18.60;11.47;;;8.20;96.30;;;;;;4956320;29;20431;-76
2021/03/26 07:09:16;;;;;;;18.07;11.37;;;8.10;96.30;;;;;;4955675;29;20406;-77
2021/03/26 07:12:13;;;;;;;33.27;16.73;;;8.30;96.30;;;;;;4955598;29;20411;-77
2021/03/26 07:14:43;;;;;;;15.80;11.13;;;8.20;96.30;;;;;;4947414;29;20446;-76
2021/03/26 07:17:32;;;;;;;21.77;13.50;;;8.30;96.30;;;;;;4953817;29;20497;-78
2021/03/26 07:20:35;;;;;;;34.73;22.73;;;8.30;96.30;;;;;;4954168;29;20425;-77
2021/03/26 07:23:19;;;;;;;20.93;12.83;;;8.60;96.30;;;;;;4940676;29;20532;-78
2021/03/26 07:25:58;;;;;;;24.70;16.57;;;9.70;96.30;;;;;;4953652;29;20437;-78
2021/03/26 07:28:36;;;;;;;21.30;13.50;;;11.20;92.90;;;;;;4953299;29;20477;-77
2021/03/26 07:31:25;;;;;;;19.30;12.93;;;12.80;88.50;;;;;;4954143;29;20399;-77
2021/03/26 07:34:11;;;;;;;22.73;13.70;;;13.40;87.80;;;;;;4936925;29;20425;-77
2021/03/26 07:37:14;;;;;;;19.77;11.97;;;13.80;88.70;;;;;;4950949;29;20422;-79
2021/03/26 07:40:30;;;;;;;22.40;14.43;;;15.40;80.70;;;;;;4888691;29;20425;-78
2021/03/26 07:43:12;;;;;;;21.13;13.67;;;16.70;75.90;;;;;;4934893;29;20526;-79
2021/03/26 07:46:02;;;;;;;20.63;13.43;;;17.60;74.30;;;;;;4952978;28;20531;-79
2021/03/26 07:48:55;;;;;;;23.47;13.30;;;17.80;72.20;;;;;;4938245;29;20418;-79
2021/03/26 07:51:36;;;;;;;20.73;15.60;;;18.00;71.60;;;;;;4942564;29;20970;-79
2021/03/26 07:54:32;;;;;;;18.90;13.67;;;17.80;71.30;;;;;;4938032;29;21089;-79
2021/03/26 07:57:26;;;;;;;16.17;12.20;;;17.60;71.70;;;;;;4962444;28;20413;-79
2021/03/26 08:00:25;;;;;;;16.30;12.53;;;17.30;71.70;;;;;;4910013;29;20919;-78
2021/03/26 08:03:10;;;;;;;14.90;11.90;;;17.20;71.30;;;;;;4920790;29;20458;-79
2021/03/26 08:05:48;;;;;;;22.83;12.27;;;17.10;73.10;;;;;;4947690;29;21013;-79
2021/03/26 08:08:20;;;;;;;21.77;11.80;;;17.90;71.20;;;;;;4939278;29;20434;-79
2021/03/26 08:10:50;;;;;;;14.87;12.00;;;18.60;68.50;;;;;;4956831;29;20421;-79
2021/03/26 08:13:50;;;;;;;16.20;11.40;;;18.60;70.90;;;;;;4956995;29;20841;-80
2021/03/26 08:16:36;;;;;;;17.43;10.93;;;19.10;68.70;;;;;;4956161;29;20461;-80
2021/03/26 08:19:30;;;;;;;13.17;10.23;;;18.30;70.80;;;;;;4938342;29;20411;-80
2021/03/26 08:22:27;;;;;;;15.50;10.30;;;18.00;71.70;;;;;;4946672;29;20464;-79
2021/03/26 08:25:06;;;;;;;13.43;10.17;;;18.20;68.70;;;;;;4937510;29;20522;-79
2021/03/26 08:27:44;;;;;;;16.60;10.10;;;17.00;70.60;;;;;;4936638;29;20498;-79
2021/03/26 08:30:41;;;;;;;16.33;10.17;;;17.00;74.00;;;;;;4928805;29;20426;-79
2021/03/26 08:33:42;;;;;;;9.73;8.23;;;16.60;73.20;;;;;;4956279;29;20410;-79
2021/03/26 08:36:33;;;;;;;12.53;8.80;;;16.80;73.80;;;;;;4937202;29;20449;-79
2021/03/26 08:39:17;;;;;;;10.00;8.83;;;17.70;69.20;;;;;;4940300;29;20415;-79
2021/03/26 08:41:52;;;;;;;10.30;7.20;;;17.20;68.80;;;;;;4956487;29;20527;-79
2021/03/26 08:44:21;;;;;;;13.10;8.00;;;16.80;72.90;;;;;;4956004;29;20452;-79
2021/03/26 08:46:51;;;;;;;12.33;7.43;;;16.30;74.30;;;;;;4955814;29;20550;-79
2021/03/26 08:49:25;;;;;;;11.57;7.20;;;16.20;75.00;;;;;;4954303;28;20425;-79
2021/03/26 08:52:42;;;;;;;10.40;8.00;;;17.00;72.60;;;;;;4936941;29;20415;-78
2021/03/26 08:55:34;;;;;;;13.37;7.30;;;17.20;73.00;;;;;;4894197;29;20475;-80
2021/03/26 08:58:33;;;;;;;13.43;7.97;;;17.20;71.60;;;;;;4880041;29;20947;-79
2021/03/26 09:01:36;;;;;;;9.00;7.00;;;17.60;71.30;;;;;;4929901;29;20431;-79
2021/03/26 09:04:21;;;;;;;9.87;6.93;;;18.50;71.00;;;;;;4936507;29;20434;-78
2021/03/26 09:06:55;;;;;;;11.37;6.53;;;18.70;68.20;;;;;;4954911;29;20421;-79
2021/03/26 09:09:58;;;;;;;11.83;6.60;;;18.80;68.60;;;;;;4955390;29;20824;-78
2021/03/26 09:12:55;;;;;;;9.00;6.33;;;18.20;69.20;;;;;;4955684;28;20407;-78
2021/03/26 09:15:45;;;;;;;11.17;6.47;;;18.10;72.20;;;;;;4929754;29;20987;-78
2021/03/26 09:18:10;;;;;;;9.80;6.37;;;18.70;70.90;;;;;;4935797;29;20504;-79
2021/03/26 09:20:39;;;;;;;9.80;6.13;;;19.60;68.00;;;;;;4936428;29;20447;-78
2021/03/26 09:23:37;;;;;;;13.83;6.67;;;18.60;68.50;;;;;;4949645;29;20199;-78
2021/03/26 09:26:14;;;;;;;11.03;7.27;;;18.30;67.50;;;;;;4941787;29;20447;-78
2021/03/26 09:28:46;;;;;;;11.87;7.60;;;17.50;69.90;;;;;;4939011;29;20952;-78
2021/03/26 09:31:19;;;;;;;9.37;6.47;;;16.40;70.80;;;;;;4954598;29;20422;-77
2021/03/26 09:34:19;;;;;;;9.47;6.30;;;15.30;76.10;;;;;;4940466;29;20415;-79
2021/03/26 09:36:47;;;;;;;10.17;6.47;;;14.30;78.20;;;;;;4917691;29;20446;-78
2021/03/26 09:39:17;;;;;;;14.30;6.27;;;13.90;77.90;;;;;;4930949;29;20801;-78
2021/03/26 09:41:54;;;;;;;7.73;5.73;;;13.80;80.60;;;;;;4955162;29;20421;-77
2021/03/26 09:44:36;;;;;;;10.83;5.73;;;14.10;78.50;;;;;;4954944;28;20449;-79
2021/03/26 09:47:04;;;;;;;10.30;5.00;;;14.60;78.60;;;;;;4952254;29;20414;-78
2021/03/26 09:49:46;;;;;;;7.90;5.63;;;15.10;74.00;;;;;;4942572;29;20426;-78
2021/03/26 09:52:29;;;;;;;8.13;5.23;;;15.40;75.40;;;;;;4927463;29;20441;-78
2021/03/26 09:55:04;;;;;;;7.57;4.63;;;15.30;73.40;;;;;;4937326;29;20431;-78
2021/03/26 09:57:56;;;;;;;10.30;4.40;;;16.50;72.90;;;;;;4950996;29;20513;-80
2021/03/26 10:00:41;;;;;;;8.13;6.37;;;16.90;70.10;;;;;;4936493;29;20415;-78
2021/03/26 10:03:25;;;;;;;8.50;5.47;;;16.70;68.30;;;;;;4939586;29;20455;-78
2021/03/26 10:06:13;;;;;;;7.67;5.20;;;16.40;71.00;;;;;;4935801;29;20435;-78
2021/03/26 10:11:22;;;;;;;5.17;4.23;;;16.70;71.40;;;;;;4948821;28;20430;-78
2021/03/26 10:14:00;;;;;;;6.60;4.50;;;16.70;71.50;;;;;;4953917;29;20419;-78
2021/03/26 10:16:54;;;;;;;11.67;4.23;;;16.70;67.00;;;;;;4947379;29;20430;-78
2021/03/26 10:19:39;;;;;;;7.20;3.20;;;16.70;67.00;;;;;;4939632;29;20437;-79
2021/03/26 10:22:36;;;;;;;10.07;5.83;;;17.00;70.10;;;;;;4955043;29;20458;-78
2021/03/26 10:25:25;;;;;;;9.10;5.47;;;17.20;73.80;;;;;;4954736;28;20450;-78
2021/03/26 10:28:11;;;;;;;7.87;4.00;;;17.50;70.80;;;;;;4926694;29;20423;-79
2021/03/26 10:30:46;;;;;;;6.23;3.47;;;17.10;70.40;;;;;;4936850;29;20497;-78
2021/03/26 10:33:14;;;;;;;5.13;3.40;;;15.60;70.40;;;;;;4953071;29;20426;-79
2021/03/26 10:35:56;;;;;;;7.03;3.83;;;15.10;73.90;;;;;;4954947;28;20438;-79
2021/03/26 10:38:49;;;;;;;4.57;3.77;;;15.70;77.20;;;;;;4954046;29;20931;-79
2021/03/26 10:41:24;;;;;;;6.30;4.50;;;16.10;75.30;;;;;;4929392;29;20434;-78
2021/03/26 10:44:18;;;;;;;7.63;4.47;;;15.50;74.00;;;;;;4954521;29;20811;-79
2021/03/26 10:46:51;;;;;;;5.33;4.07;;;14.70;75.00;;;;;;4936721;29;20783;-78
2021/03/26 10:49:23;;;;;;;7.70;4.40;;;15.10;76.70;;;;;;4954432;29;20449;-79
2021/03/26 10:52:09;;;;;;;8.37;5.50;;;15.50;75.70;;;;;;4954229;29;20518;-79
2021/03/26 10:54:48;;;;;;;7.80;5.90;;;16.00;70.60;;;;;;4936042;29;20446;-78
2021/03/26 10:57:32;;;;;;;8.87;6.10;;;16.50;73.10;;;;;;4953291;29;20419;-80
2021/03/26 11:00:19;;;;;;;10.10;6.90;;;17.00;72.50;;;;;;4933467;29;20783;-78
2021/03/26 11:03:05;;;;;;;11.00;6.73;;;16.80;72.50;;;;;;4936706;29;20467;-78
2021/03/26 11:05:39;;;;;;;9.43;7.60;;;16.50;75.70;;;;;;4937576;29;20443;-79
2021/03/26 11:08:25;;;;;;;10.73;8.33;;;16.50;73.60;;;;;;4955427;29;20994;-79
2021/03/26 11:11:09;;;;;;;14.13;8.43;;;16.10;74.80;;;;;;4938739;29;20526;-78
2021/03/26 11:13:58;;;;;;;11.77;8.23;;;16.00;74.40;;;;;;4953524;29;20430;-78
2021/03/26 11:16:32;;;;;;;12.67;10.10;;;15.90;74.50;;;;;;4953901;29;20938;-77
2021/03/26 11:19:05;;;;;;;17.77;11.83;;;16.80;74.60;;;;;;4938952;29;20422;-78
2021/03/26 11:21:40;;;;;;;17.00;11.73;;;17.00;74.00;;;;;;4934602;29;20464;-79
2021/03/26 11:24:07;;;;;;;17.03;10.90;;;17.00;71.20;;;;;;4938248;29;20447;-79
2021/03/26 11:26:57;;;;;;;21.27;13.13;;;17.00;74.40;;;;;;4923879;29;20769;-78
2021/03/26 11:29:32;;;;;;;16.53;13.20;;;16.20;71.90;;;;;;4949941;29;20820;-78
2021/03/26 11:32:07;;;;;;;23.77;12.40;;;15.40;76.50;;;;;;4957399;28;20413;-78
2021/03/26 11:35:03;;;;;;;17.97;13.57;;;15.90;75.00;;;;;;4957715;29;20438;-78
2021/03/26 11:37:40;;;;;;;18.03;14.07;;;16.10;78.90;;;;;;4949558;29;20455;-78
2021/03/26 11:40:29;;;;;;;21.97;13.60;;;16.30;75.80;;;;;;4939453;29;20426;-79
2021/03/26 11:43:30;;;;;;;18.63;13.20;;;15.50;72.80;;;;;;4938672;29;20451;-78
2021/03/26 11:45:59;;;;;;;16.70;14.70;;;15.50;78.40;;;;;;4953020;28;20446;-79
2021/03/26 11:48:53;;;;;;;20.33;15.17;;;16.10;79.50;;;;;;4942016;28;20431;-78
2021/03/26 11:51:25;;;;;;;22.17;14.90;;;16.40;78.60;;;;;;4938554;29;20422;-79
2021/03/26 11:54:09;;;;;;;20.03;14.00;;;16.70;74.70;;;;;;4938000;29;20415;-78
2021/03/26 11:57:04;;;;;;;22.67;17.30;;;17.20;78.00;;;;;;4946801;29;20402;-78
2021/03/26 11:59:49;;;;;;;25.80;16.40;;;16.40;76.90;;;;;;4920819;29;20432;-79
2021/03/26 12:02:34;;;;;;;23.00;15.40;;;16.60;76.80;;;;;;4952452;29;20465;-79
2021/03/26 12:05:26;;;;;;;24.73;15.67;;;16.40;73.70;;;;;;4955584;28;21040;-78
2021/03/26 12:08:18;;;;;;;20.30;15.30;;;16.70;74.80;;;;;;4955110;29;20485;-79
2021/03/26 12:11:02;;;;;;;18.10;14.80;;;16.80;70.20;;;;;;4957079;29;20415;-77
2021/03/26 12:13:39;;;;;;;20.43;16.00;;;16.20;75.50;;;;;;4956349;29;20505;-78
2021/03/26 12:16:14;;;;;;;19.40;15.20;;;16.80;72.40;;;;;;4956640;28;20529;-78
2021/03/26 12:18:46;;;;;;;20.80;15.43;;;16.50;74.20;;;;;;4952335;29;20442;-78
2021/03/26 12:21:25;;;;;;;20.13;15.93;;;16.50;73.50;;;;;;4955254;29;20490;-79
2021/03/26 12:24:20;;;;;;;20.13;15.53;;;16.10;73.80;;;;;;4956657;29;20537;-80
2021/03/26 12:27:09;;;;;;;24.00;15.60;;;16.50;78.30;;;;;;4945511;29;20463;-78
2021/03/26 12:29:57;;;;;;;20.23;14.07;;;17.20;74.40;;;;;;4937752;29;20410;-76
2021/03/26 12:32:28;;;;;;;19.80;15.23;;;17.10;71.60;;;;;;4954062;29;20406;-77
2021/03/26 12:35:03;;;;;;;17.30;14.17;;;16.20;73.30;;;;;;4955162;28;20438;-78
2021/03/26 12:37:47;;;;;;;21.27;14.23;;;16.90;71.90;;;;;;4930838;29;20427;-78
2021/03/26 12:40:37;;;;;;;22.73;14.40;;;16.10;70.40;;;;;;4939431;29;20423;-78
2021/03/26 12:43:17;;;;;;;20.20;14.10;;;15.50;75.90;;;;;;4948205;29;20463;-78
2021/03/26 12:45:52;;;;;;;22.23;14.23;;;15.70;77.10;;;;;;4953369;29;20930;-78
2021/03/26 12:48:20;;;;;;;17.23;12.40;;;16.00;77.80;;;;;;4947843;29;20886;-79
2021/03/26 12:51:00;;;;;;;18.17;11.07;;;16.20;73.40;;;;;;4956367;28;21195;-77
2021/03/26 12:53:38;;;;;;;17.20;12.63;;;15.60;72.30;;;;;;4956694;29;20481;-78
2021/03/26 12:56:14;;;;;;;13.87;11.37;;;15.30;73.30;;;;;;4956627;29;20473;-78
2021/03/26 12:59:02;;;;;;;14.17;10.67;;;16.10;71.70;;;;;;4955035;29;20994;-78
2021/03/26 13:01:53;;;;;;;20.30;10.70;;;16.60;72.30;;;;;;4956292;29;20426;-78
2021/03/26 13:04:41;;;;;;;16.77;10.80;;;17.20;70.60;;;;;;4954308;28;20455;-79
2021/03/26 13:07:24;;;;;;;14.47;9.47;;;16.50;67.30;;;;;;4954248;29;20429;-77
2021/03/26 13:10:21;;;;;;;16.23;11.33;;;16.10;69.30;;;;;;4955697;29;20398;-77
2021/03/26 13:12:48;;;;;;;14.20;10.37;;;15.60;68.20;;;;;;4955752;29;20438;-78
2021/03/26 13:15:26;;;;;;;15.07;10.50;;;15.30;70.50;;;;;;4938886;29;20601;-77
2021/03/26 13:18:12;;;;;;;12.73;8.93;;;15.20;71.90;;;;;;4955023;29;20426;-77
2021/03/26 13:21:13;;;;;;;14.90;8.90;;;15.40;73.10;;;;;;4937615;29;20510;-78
2021/03/26 13:23:44;;;;;;;17.83;10.23;;;15.40;71.20;;;;;;4947661;29;20462;-77
2021/03/26 13:26:18;;;;;;;12.20;9.67;;;15.10;70.80;;;;;;4938231;29;20549;-78
2021/03/26 13:28:53;;;;;;;14.53;9.27;;;15.00;72.50;;;;;;4955043;29;20443;-78
2021/03/26 13:31:28;;;;;;;15.20;9.77;;;14.90;72.80;;;;;;4955016;29;20444;-77
2021/03/26 13:34:07;;;;;;;16.30;8.67;;;15.10;74.30;;;;;;4941429;29;20510;-78
2021/03/26 13:36:52;;;;;;;17.57;9.30;;;15.10;72.40;;;;;;4935983;29;20478;-78
2021/03/26 13:39:35;;;;;;;11.83;8.80;;;14.80;69.30;;;;;;4947376;29;20533;-78
2021/03/26 13:42:07;;;;;;;16.70;11.27;;;14.80;71.00;;;;;;4954989;29;20466;-78
2021/03/26 13:44:50;;;;;;;13.33;10.13;;;15.10;72.00;;;;;;4954300;29;20442;-78
2021/03/26 13:47:51;;;;;;;18.23;11.20;;;15.30;75.90;;;;;;4929162;29;20852;-78
2021/03/26 13:50:16;;;;;;;17.80;11.23;;;15.70;76.20;;;;;;4928732;29;20847;-78
2021/03/26 13:52:54;;;;;;;13.80;9.10;;;15.90;71.90;;;;;;4955152;29;20419;-78
2021/03/26 13:55:49;;;;;;;12.30;10.60;;;15.60;70.80;;;;;;4954872;28;20209;-78
2021/03/26 13:58:23;;;;;;;12.63;10.60;;;15.70;74.60;;;;;;4953341;29;21002;-78
2021/03/26 14:00:54;;;;;;;14.60;10.40;;;16.20;72.60;;;;;;4951339;29;20829;-77
2021/03/26 14:03:43;;;;;;;15.17;9.50;;;16.70;71.50;;;;;;4955272;29;20458;-77
2021/03/26 14:06:14;;;;;;;18.70;8.50;;;17.20;72.70;;;;;;4954701;29;20431;-77
2021/03/26 14:08:48;;;;;;;15.43;8.37;;;16.70;69.60;;;;;;4954413;29;20398;-78
2021/03/26 14:11:19;;;;;;;10.73;8.20;;;16.30;68.90;;;;;;4937274;29;20423;-78
2021/03/26 14:13:55;;;;;;;9.50;8.10;;;16.00;68.00;;;;;;4937099;29;20411;-78
2021/03/26 14:16:28;;;;;;;10.47;7.40;;;15.80;69.00;;;;;;4937228;29;20465;-78
2021/03/26 14:19:11;;;;;;;13.70;7.00;;;16.10;71.20;;;;;;4954080;29;20546;-78
2021/03/26 14:21:46;;;;;;;8.67;6.53;;;16.60;70.00;;;;;;4954561;29;20505;-77
2021/03/26 14:24:37;;;;;;;10.23;6.80;;;16.50;69.80;;;;;;4954485;28;20477;-79
2021/03/26 14:27:03;;;;;;;8.53;6.40;;;16.20;70.80;;;;;;4953698;29;20470;-78
2021/03/26 14:29:36;;;;;;;11.27;6.63;;;16.50;70.00;;;;;;4954208;29;20884;-78
2021/03/26 14:32:18;;;;;;;11.97;6.47;;;16.80;65.20;;;;;;4937104;29;20251;-77
2021/03/26 14:34:56;;;;;;;10.97;6.20;;;16.80;66.20;;;;;;4954019;29;20469;-77
2021/03/26 14:37:29;;;;;;;8.20;5.23;;;16.50;67.20;;;;;;4953580;29;20469;-77
2021/03/26 14:40:05;;;;;;;8.77;5.80;;;16.70;64.50;;;;;;4954441;29;20497;-78
2021/03/26 14:42:42;;;;;;;6.63;5.50;;;16.50;63.50;;;;;;4953790;29;20473;-77
2021/03/26 14:45:24;;;;;;;8.90;4.73;;;16.40;63.30;;;;;;4953441;28;20525;-77
2021/03/26 14:48:14;;;;;;;9.90;5.80;;;16.30;64.80;;;;;;4949728;29;20442;-77
2021/03/26 14:50:41;;;;;;;7.93;5.50;;;16.30;64.20;;;;;;4953155;29;20407;-78
2021/03/26 14:53:20;;;;;;;8.73;4.83;;;16.50;62.00;;;;;;4954455;29;20490;-78
2021/03/26 14:56:00;;;;;;;7.70;5.57;;;16.40;63.10;;;;;;4954431;28;20587;-78
2021/03/26 14:58:37;;;;;;;12.17;5.80;;;16.30;67.80;;;;;;4952440;28;20418;-78
2021/03/26 15:01:29;;;;;;;12.47;5.20;;;16.30;66.40;;;;;;4953313;29;20418;-77
2021/03/26 15:04:05;;;;;;;8.33;4.13;;;16.50;66.60;;;;;;4954563;29;20470;-77
2021/03/26 15:06:55;;;;;;;6.63;4.13;;;15.80;61.20;;;;;;4954463;29;20486;-77
2021/03/26 15:09:20;;;;;;;6.40;4.37;;;16.10;62.20;;;;;;4954454;29;20395;-78
2021/03/26 15:12:13;;;;;;;5.70;3.90;;;16.70;63.20;;;;;;4954207;29;20774;-77
2021/03/26 15:14:42;;;;;;;4.17;3.17;;;16.70;64.20;;;;;;4953799;29;20242;-78
2021/03/26 15:17:27;;;;;;;10.33;3.40;;;16.60;62.60;;;;;;4953321;29;20501;-78
2021/03/26 15:19:54;;;;;;;4.60;3.43;;;16.20;62.00;;;;;;4934960;29;20943;-77
2021/03/26 15:22:46;;;;;;;6.20;3.80;;;16.00;62.10;;;;;;4953894;29;20473;-78
2021/03/26 15:25:20;;;;;;;5.00;3.50;;;15.30;65.90;;;;;;4952831;29;20488;-78
2021/03/26 15:28:08;;;;;;;6.00;3.30;;;14.90;66.20;;;;;;4951153;29;20894;-78
2021/03/26 15:30:47;;;;;;;7.33;3.40;;;14.90;66.10;;;;;;4994435;23;20551;-80
2021/03/26 15:33:22;;;;;;;10.03;3.63;;;15.10;67.60;;;;;;4946835;28;20435;-78
2021/03/26 15:36:04;;;;;;;6.30;3.60;;;15.30;64.90;;;;;;4952805;28;20730;-79
2021/03/26 15:38:39;;;;;;;4.43;3.60;;;15.40;65.90;;;;;;4955480;28;20417;-78
2021/03/26 15:41:15;;;;;;;5.63;3.47;;;15.40;66.60;;;;;;4955838;28;20960;-78
2021/03/26 15:43:47;;;;;;;5.60;3.00;;;15.50;63.70;;;;;;4973971;28;20485;-79
2021/03/26 15:46:22;;;;;;;4.13;2.70;;;15.40;66.30;;;;;;4956032;28;20439;-78
2021/03/26 15:49:16;;;;;;;7.67;3.27;;;15.50;64.60;;;;;;4973039;28;20493;-78
2021/03/26 15:52:20;;;;;;;8.50;3.80;;;15.40;66.10;;;;;;4962140;28;20513;-78
2021/03/26 15:55:19;;;;;;;7.90;3.50;;;15.60;68.40;;;;;;4970259;28;20456;-79
2021/03/26 15:58:00;;;;;;;4.77;3.23;;;15.10;68.10;;;;;;4956674;28;20468;-79
2021/03/26 16:00:50;;;;;;;4.40;2.43;;;14.70;66.70;;;;;;4974925;28;20429;-78
2021/03/26 16:03:37;;;;;;;6.57;2.50;;;14.70;67.00;;;;;;4957433;28;20461;-78
2021/03/26 16:06:10;;;;;;;9.67;2.83;;;14.70;68.00;;;;;;4976598;28;20489;-78
2021/03/26 16:09:02;;;;;;;5.23;2.77;;;14.70;66.60;;;;;;4975668;28;20406;-78
2021/03/26 16:12:01;;;;;;;6.03;2.93;;;14.70;67.40;;;;;;4978487;28;20509;-78
2021/03/26 16:14:33;;;;;;;5.40;3.27;;;14.60;68.00;;;;;;4978281;28;20719;-78
2021/03/26 16:17:35;;;;;;;4.60;2.67;;;14.20;69.00;;;;;;4977656;28;20656;-78
2021/03/26 16:20:31;;;;;;;10.20;3.70;;;14.00;68.70;;;;;;4977275;28;20496;-78
2021/03/26 16:23:09;;;;;;;5.43;3.00;;;14.00;70.60;;;;;;4978240;28;20442;-78
2021/03/26 16:26:01;;;;;;;3.20;2.87;;;14.20;69.70;;;;;;4978032;28;20406;-78
2021/03/26 16:28:35;;;;;;;4.63;2.60;;;14.10;70.70;;;;;;4977489;28;20888;-78
2021/03/26 16:31:17;;;;;;;4.20;2.47;;;13.90;70.50;;;;;;4960009;28;20455;-78
2021/03/26 16:34:12;;;;;;;8.00;2.80;;;13.80;71.80;;;;;;4960649;28;20420;-78
2021/03/26 16:37:03;;;;;;;8.20;3.10;;;13.50;71.90;;;;;;4978187;28;20412;-78
2021/03/26 16:39:42;;;;;;;9.70;3.10;;;13.40;72.70;;;;;;4977613;28;20804;-78
2021/03/26 16:42:30;;;;;;;10.23;3.13;;;13.20;73.70;;;;;;4977410;28;20511;-78
2021/03/26 16:45:02;;;;;;;9.43;2.57;;;13.00;75.10;;;;;;4978883;28;20485;-78
2021/03/26 16:47:45;;;;;;;4.13;3.00;;;12.80;76.10;;;;;;4977346;28;20412;-78
2021/03/26 16:50:27;;;;;;;5.37;2.80;;;12.70;74.60;;;;;;4960100;28;20429;-78
2021/03/26 16:53:04;;;;;;;4.07;2.80;;;12.70;76.20;;;;;;4960264;28;20414;-77
2021/03/26 16:55:37;;;;;;;14.20;4.00;;;12.60;75.90;;;;;;4963500;28;20429;-78
2021/03/26 16:58:27;;;;;;;9.23;3.50;;;12.50;77.20;;;;;;4976626;28;20422;-78
2021/03/26 17:01:44;;;;;;;7.00;2.80;;;12.40;78.00;;;;;;4959820;28;20456;-78
2021/03/26 17:04:33;;;;;;;7.73;3.23;;;12.20;79.20;;;;;;4907574;28;20480;-78
2021/03/26 17:07:28;;;;;;;8.27;3.00;;;12.00;80.60;;;;;;4977455;28;20417;-78
2021/03/26 17:10:12;;;;;;;6.83;2.70;;;11.80;81.40;;;;;;4959912;28;20425;-78
2021/03/26 17:12:56;;;;;;;10.93;2.80;;;11.70;83.20;;;;;;4959739;28;20441;-78
2021/03/26 17:15:46;;;;;;;5.63;2.33;;;11.50;83.60;;;;;;4988549;28;20417;-78
2021/03/26 17:18:42;;;;;;;12.60;8.77;;;11.40;84.80;;;;;;4988145;28;20406;-78
2021/03/26 17:21:22;;;;;;;16.70;10.00;;;11.20;83.90;;;;;;4958367;28;20449;-79
2021/03/26 17:24:11;;;;;;;9.43;4.37;;;11.10;84.00;;;;;;4977142;28;20441;-79
2021/03/26 17:27:10;;;;;;;669.93;466.20;;;11.00;85.70;;;;;;4976377;28;20457;-79
2021/03/26 17:30:02;;;;;;;87.53;54.80;;;10.70;86.30;;;;;;4978168;28;20402;-80
2021/03/26 17:32:54;;;;;;;14.30;8.27;;;10.50;86.60;;;;;;4962723;28;20525;-79
2021/03/26 17:35:50;;;;;;;10.07;4.60;;;10.20;87.00;;;;;;4963638;28;20421;-80
2021/03/26 17:38:40;;;;;;;12.70;5.57;;;9.90;87.90;;;;;;4978257;28;20410;-80
2021/03/26 17:41:57;;;;;;;10.07;7.80;;;9.90;88.10;;;;;;4955696;28;20457;-80
2021/03/26 17:44:25;;;;;;;11.60;2.90;;;9.70;89.00;;;;;;4923812;28;20474;-79
2021/03/26 17:46:59;;;;;;;3.73;2.10;;;9.30;90.20;;;;;;4975418;28;20413;-79
2021/03/26 17:49:50;;;;;;;45.00;30.30;;;8.70;93.30;;;;;;4955345;28;20921;-80
2021/03/26 17:52:31;;;;;;;41.43;33.00;;;8.60;93.20;;;;;;4953506;28;20984;-80
2021/03/26 17:55:11;;;;;;;20.50;14.07;;;8.70;92.00;;;;;;4957624;28;20421;-81
2021/03/26 17:57:58;;;;;;;11.63;5.90;;;8.80;92.00;;;;;;4973103;28;20405;-80
2021/03/26 18:00:52;;;;;;;733.07;530.73;;;8.90;91.60;;;;;;4956682;28;20445;-81